Bonanza, Arkansas
Current Conditions -  °F | °C
As of 3:53 PM on Tuesday 25 Nov 2014 (Local Time) from KFSM Reporting Station
Clear Clear  
Wind Chill: 51°   Ceiling: Unl
Heat Index: 51°   Visibility: 10mi
Dew Point: 20°   Wind: 7mph
Humidity: 29%   Direction: 250°WSW
Pressure: 30.16"   Gusts: NA
Location:  35.2504°N, 94.3714°W
Report Text: KFSM 252153Z 25006KT 10SM CLR 11/M07 A3016 RMK AO2 SLP215 T01061067
Loading
Personal Weather Stations






























Interactive Weather Map New forecast layout! Learn more

10-Day Weather Forecast

Advertisements
Track Severe Weather on mobile